sensor_id;sensor_type;location;lat;lon;timestamp;pressure;altitude;pressure_sealevel;temperature;humidity
59531;BME280;45349;48.692;8.186;2023-10-08T00:01:03;149081.44;;;11.80;73.00
59531;BME280;45349;48.692;8.186;2023-10-08T00:03:56;149075.16;;;11.78;73.33
59531;BME280;45349;48.692;8.186;2023-10-08T00:06:50;149067.69;;;11.75;70.42
59531;BME280;45349;48.692;8.186;2023-10-08T00:09:43;149087.63;;;11.83;70.33
59531;BME280;45349;48.692;8.186;2023-10-08T00:12:35;149078.94;;;11.79;71.23
59531;BME280;45349;48.692;8.186;2023-10-08T00:15:27;149063.97;;;11.73;71.13
59531;BME280;45349;48.692;8.186;2023-10-08T00:18:24;149067.69;;;11.75;70.06
59531;BME280;45349;48.692;8.186;2023-10-08T00:21:15;149067.69;;;11.75;69.67
59531;BME280;45349;48.692;8.186;2023-10-08T00:24:08;149075.16;;;11.78;68.07
59531;BME280;45349;48.692;8.186;2023-10-08T00:26:59;149085.16;;;11.82;67.92
59531;BME280;45349;48.692;8.186;2023-10-08T00:29:53;149086.41;;;11.82;69.92
59531;BME280;45349;48.692;8.186;2023-10-08T00:32:46;149087.63;;;11.83;69.92
59531;BME280;45349;48.692;8.186;2023-10-08T00:35:41;149113.84;;;11.94;72.49
59531;BME280;45349;48.692;8.186;2023-10-08T00:38:33;149103.88;;;11.90;70.57
59531;BME280;45349;48.692;8.186;2023-10-08T00:41:26;149150.03;;;12.09;68.14
59531;BME280;45349;48.692;8.186;2023-10-08T00:44:21;149110.09;;;11.92;69.71
59531;BME280;45349;48.692;8.186;2023-10-08T00:47:20;149100.09;;;11.88;70.38
59531;BME280;45349;48.692;8.186;2023-10-08T00:50:17;149098.88;;;11.88;69.80
59531;BME280;45349;48.692;8.186;2023-10-08T00:53:13;149098.88;;;11.88;70.81
59531;BME280;45349;48.692;8.186;2023-10-08T00:56:12;149106.34;;;11.91;70.15
59531;BME280;45349;48.692;8.186;2023-10-08T00:59:05;149112.56;;;11.93;72.36
59531;BME280;45349;48.692;8.186;2023-10-08T01:01:57;149093.91;;;11.86;73.48
59531;BME280;45349;48.692;8.186;2023-10-08T01:04:55;149090.13;;;11.84;75.54
59531;BME280;45349;48.692;8.186;2023-10-08T01:07:48;149090.13;;;11.84;74.85
59531;BME280;45349;48.692;8.186;2023-10-08T01:10:18;149088.91;;;11.84;73.83
59531;BME280;45349;48.692;8.186;2023-10-08T01:12:46;149100.09;;;11.88;75.00
59531;BME280;45349;48.692;8.186;2023-10-08T01:15:29;149103.88;;;11.90;76.20
59531;BME280;45349;48.692;8.186;2023-10-08T01:18:01;149082.66;;;11.81;75.81
59531;BME280;45349;48.692;8.186;2023-10-08T01:20:30;149088.91;;;11.84;75.55
59531;BME280;45349;48.692;8.186;2023-10-08T01:23:04;149097.59;;;11.87;77.17
59531;BME280;45349;48.692;8.186;2023-10-08T01:25:36;149117.56;;;11.95;72.03
59531;BME280;45349;48.692;8.186;2023-10-08T01:28:04;149093.91;;;11.86;73.58
59531;BME280;45349;48.692;8.186;2023-10-08T01:30:40;149107.59;;;11.91;76.59
59531;BME280;45349;48.692;8.186;2023-10-08T01:33:08;149107.59;;;11.91;75.30
59531;BME280;45349;48.692;8.186;2023-10-08T01:35:39;149098.88;;;11.88;73.85
59531;BME280;45349;48.692;8.186;2023-10-08T01:38:07;149090.13;;;11.84;75.06
59531;BME280;45349;48.692;8.186;2023-10-08T01:40:39;149085.16;;;11.82;76.70
59531;BME280;45349;48.692;8.186;2023-10-08T01:43:06;149070.19;;;11.76;76.32
59531;BME280;45349;48.692;8.186;2023-10-08T01:45:36;149057.72;;;11.71;77.01
59531;BME280;45349;48.692;8.186;2023-10-08T01:48:06;149059.00;;;11.71;75.89
59531;BME280;45349;48.692;8.186;2023-10-08T01:50:35;149030.34;;;11.59;76.82
59531;BME280;45349;48.692;8.186;2023-10-08T01:53:02;149040.31;;;11.63;77.58
59531;BME280;45349;48.692;8.186;2023-10-08T01:56:00;149029.06;;;11.59;76.61
59531;BME280;45349;48.692;8.186;2023-10-08T01:58:30;149047.75;;;11.66;79.01
59531;BME280;45349;48.692;8.186;2023-10-08T02:00:56;149034.06;;;11.61;79.00
59531;BME280;45349;48.692;8.186;2023-10-08T02:03:26;149040.31;;;11.63;80.38
59531;BME280;45349;48.692;8.186;2023-10-08T02:06:03;149036.56;;;11.62;78.65
59531;BME280;45349;48.692;8.186;2023-10-08T02:08:34;149017.88;;;11.54;79.29
59531;BME280;45349;48.692;8.186;2023-10-08T02:11:03;149052.75;;;11.69;76.74
59531;BME280;45349;48.692;8.186;2023-10-08T02:13:29;149051.50;;;11.68;79.73
59531;BME280;45349;48.692;8.186;2023-10-08T02:15:56;149051.50;;;11.68;80.47
59531;BME280;45349;48.692;8.186;2023-10-08T02:18:23;149030.34;;;11.59;79.97
59531;BME280;45349;48.692;8.186;2023-10-08T02:20:50;149041.53;;;11.64;78.37
59531;BME280;45349;48.692;8.186;2023-10-08T02:23:18;149067.69;;;11.75;76.44
59531;BME280;45349;48.692;8.186;2023-10-08T02:25:44;149045.31;;;11.65;78.09
59531;BME280;45349;48.692;8.186;2023-10-08T02:28:12;149025.34;;;11.57;79.80
59531;BME280;45349;48.692;8.186;2023-10-08T02:30:41;149002.94;;;11.48;80.15
59531;BME280;45349;48.692;8.186;2023-10-08T02:33:08;148987.97;;;11.42;81.54
59531;BME280;45349;48.692;8.186;2023-10-08T02:35:40;148970.53;;;11.34;81.30
59531;BME280;45349;48.692;8.186;2023-10-08T02:38:09;148973.03;;;11.35;81.57
59531;BME280;45349;48.692;8.186;2023-10-08T02:40:37;148958.06;;;11.29;81.04
59531;BME280;45349;48.692;8.186;2023-10-08T02:43:10;148939.34;;;11.21;81.48
59531;BME280;45349;48.692;8.186;2023-10-08T02:45:38;148931.88;;;11.18;80.81
59531;BME280;45349;48.692;8.186;2023-10-08T02:48:07;148940.63;;;11.22;82.65
59531;BME280;45349;48.692;8.186;2023-10-08T02:50:37;148930.66;;;11.18;84.82
59531;BME280;45349;48.692;8.186;2023-10-08T02:53:06;148929.38;;;11.17;83.46
59531;BME280;45349;48.692;8.186;2023-10-08T02:55:36;148911.97;;;11.10;84.31
59531;BME280;45349;48.692;8.186;2023-10-08T02:58:07;148914.47;;;11.11;85.44
59531;BME280;45349;48.692;8.186;2023-10-08T03:00:38;148900.75;;;11.05;84.60
59531;BME280;45349;48.692;8.186;2023-10-08T03:03:06;148888.28;;;11.00;85.01
59531;BME280;45349;48.692;8.186;2023-10-08T03:05:41;148887.06;;;11.00;84.70
59531;BME280;45349;48.692;8.186;2023-10-08T03:08:09;148879.59;;;10.97;85.02
59531;BME280;45349;48.692;8.186;2023-10-08T03:10:37;148874.59;;;10.95;83.87
59531;BME280;45349;48.692;8.186;2023-10-08T03:13:04;148874.59;;;10.95;84.11
59531;BME280;45349;48.692;8.186;2023-10-08T03:15:31;148883.31;;;10.98;84.20
59531;BME280;45349;48.692;8.186;2023-10-08T03:18:13;148892.03;;;11.02;83.19
59531;BME280;45349;48.692;8.186;2023-10-08T03:20:41;148883.31;;;10.98;84.55
59531;BME280;45349;48.692;8.186;2023-10-08T03:23:12;148880.81;;;10.97;83.04
59531;BME280;45349;48.692;8.186;2023-10-08T03:25:51;148888.28;;;11.00;82.10
59531;BME280;45349;48.692;8.186;2023-10-08T03:28:22;148885.78;;;10.99;82.79
59531;BME280;45349;48.692;8.186;2023-10-08T03:33:24;148900.75;;;11.05;80.06
59531;BME280;45349;48.692;8.186;2023-10-08T03:35:52;148915.69;;;11.12;81.25
59531;BME280;45349;48.692;8.186;2023-10-08T03:38:20;148933.13;;;11.19;81.82
59531;BME280;45349;48.692;8.186;2023-10-08T03:40:54;148970.53;;;11.34;79.09
59531;BME280;45349;48.692;8.186;2023-10-08T03:43:29;148973.03;;;11.35;78.98
59531;BME280;45349;48.692;8.186;2023-10-08T03:46:08;148958.06;;;11.29;79.70
59531;BME280;45349;48.692;8.186;2023-10-08T03:48:42;148987.97;;;11.42;78.77
59531;BME280;45349;48.692;8.186;2023-10-08T03:51:11;148994.19;;;11.44;79.70
59531;BME280;45349;48.692;8.186;2023-10-08T03:53:38;148985.47;;;11.41;79.69
59531;BME280;45349;48.692;8.186;2023-10-08T03:56:24;149015.38;;;11.53;80.59
59531;BME280;45349;48.692;8.186;2023-10-08T03:58:51;148987.97;;;11.42;81.46
59531;BME280;45349;48.692;8.186;2023-10-08T04:01:20;148994.19;;;11.44;78.08
59531;BME280;45349;48.692;8.186;2023-10-08T04:03:51;149062.72;;;11.73;78.10
59531;BME280;45349;48.692;8.186;2023-10-08T04:06:27;149055.22;;;11.70;78.97
59531;BME280;45349;48.692;8.186;2023-10-08T04:09:04;149059.00;;;11.71;76.66
59531;BME280;45349;48.692;8.186;2023-10-08T04:11:50;149065.19;;;11.74;77.91
59531;BME280;45349;48.692;8.186;2023-10-08T04:14:22;149059.00;;;11.71;78.52
59531;BME280;45349;48.692;8.186;2023-10-08T04:16:49;149055.22;;;11.70;79.48
59531;BME280;45349;48.692;8.186;2023-10-08T04:19:19;149070.19;;;11.76;78.89
59531;BME280;45349;48.692;8.186;2023-10-08T04:21:50;149085.16;;;11.82;79.94
59531;BME280;45349;48.692;8.186;2023-10-08T04:24:21;149073.94;;;11.77;82.01
59531;BME280;45349;48.692;8.186;2023-10-08T04:26:54;149054.00;;;11.69;80.75
59531;BME280;45349;48.692;8.186;2023-10-08T04:29:22;149036.56;;;11.62;80.70
59531;BME280;45349;48.692;8.186;2023-10-08T04:31:50;149039.03;;;11.63;82.06
59531;BME280;45349;48.692;8.186;2023-10-08T04:34:28;149039.03;;;11.63;83.80
59531;BME280;45349;48.692;8.186;2023-10-08T04:36:55;149071.47;;;11.76;82.22
59531;BME280;45349;48.692;8.186;2023-10-08T04:39:26;149131.34;;;12.01;80.44
59531;BME280;45349;48.692;8.186;2023-10-08T04:41:57;149132.56;;;12.02;80.21
59531;BME280;45349;48.692;8.186;2023-10-08T04:44:26;149174.97;;;12.19;80.59
59531;BME280;45349;48.692;8.186;2023-10-08T04:46:57;149184.94;;;12.23;80.29
59531;BME280;45349;48.692;8.186;2023-10-08T04:49:31;149222.34;;;12.39;79.11
59531;BME280;45349;48.692;8.186;2023-10-08T04:52:01;149191.16;;;12.26;78.09
59531;BME280;45349;48.692;8.186;2023-10-08T04:54:33;149156.28;;;12.12;78.26
59531;BME280;45349;48.692;8.186;2023-10-08T04:57:06;149151.28;;;12.09;79.34
59531;BME280;45349;48.692;8.186;2023-10-08T04:59:41;149194.91;;;12.28;77.95
59531;BME280;45349;48.692;8.186;2023-10-08T05:02:09;149162.50;;;12.14;78.02
59531;BME280;45349;48.692;8.186;2023-10-08T05:04:47;149172.47;;;12.18;78.10
59531;BME280;45349;48.692;8.186;2023-10-08T05:07:32;149146.31;;;12.07;80.42
59531;BME280;45349;48.692;8.186;2023-10-08T05:10:15;149138.81;;;12.04;80.65
59531;BME280;45349;48.692;8.186;2023-10-08T05:13:09;149117.56;;;11.95;87.25
59531;BME280;45349;48.692;8.186;2023-10-08T05:15:42;149091.41;;;11.85;85.96
59531;BME280;45349;48.692;8.186;2023-10-08T05:18:27;149063.97;;;11.73;85.51
59531;BME280;45349;48.692;8.186;2023-10-08T05:21:13;149090.13;;;11.84;88.00
59531;BME280;45349;48.692;8.186;2023-10-08T05:23:51;149070.19;;;11.76;89.63
59531;BME280;45349;48.692;8.186;2023-10-08T05:26:35;149046.53;;;11.66;88.37
59531;BME280;45349;48.692;8.186;2023-10-08T05:29:11;149077.66;;;11.79;90.04
59531;BME280;45349;48.692;8.186;2023-10-08T05:31:54;149050.25;;;11.67;90.01
59531;BME280;45349;48.692;8.186;2023-10-08T05:34:47;149039.03;;;11.63;90.44
59531;BME280;45349;48.692;8.186;2023-10-08T05:37:36;149046.53;;;11.66;90.76
59531;BME280;45349;48.692;8.186;2023-10-08T05:40:08;149066.47;;;11.74;94.88
59531;BME280;45349;48.692;8.186;2023-10-08T05:42:46;149052.75;;;11.69;94.33
59531;BME280;45349;48.692;8.186;2023-10-08T05:45:16;149040.31;;;11.63;93.58
59531;BME280;45349;48.692;8.186;2023-10-08T05:47:55;149063.97;;;11.73;94.22
59531;BME280;45349;48.692;8.186;2023-10-08T05:50:40;149065.19;;;11.74;94.16
59531;BME280;45349;48.692;8.186;2023-10-08T05:53:20;149095.13;;;11.86;95.73
59531;BME280;45349;48.692;8.186;2023-10-08T05:56:07;149116.34;;;11.95;92.52
59531;BME280;45349;48.692;8.186;2023-10-08T05:58:53;149126.31;;;11.99;93.00
59531;BME280;45349;48.692;8.186;2023-10-08T06:01:41;149136.34;;;12.03;92.58
59531;BME280;45349;48.692;8.186;2023-10-08T06:04:07;149126.31;;;11.99;92.75
59531;BME280;45349;48.692;8.186;2023-10-08T06:07:07;149120.06;;;11.96;92.21
59531;BME280;45349;48.692;8.186;2023-10-08T06:09:38;149150.03;;;12.09;92.46
59531;BME280;45349;48.692;8.186;2023-10-08T06:12:06;149153.78;;;12.10;92.52
59531;BME280;45349;48.692;8.186;2023-10-08T06:14:36;149168.75;;;12.17;93.50
59531;BME280;45349;48.692;8.186;2023-10-08T06:17:20;149168.75;;;12.17;93.50
59531;BME280;45349;48.692;8.186;2023-10-08T06:20:00;149177.44;;;12.20;92.93
59531;BME280;45349;48.692;8.186;2023-10-08T06:22:35;149192.41;;;12.27;92.88
59531;BME280;45349;48.692;8.186;2023-10-08T06:25:02;149209.88;;;12.34;93.09
59531;BME280;45349;48.692;8.186;2023-10-08T06:27:48;149247.28;;;12.49;94.13
59531;BME280;45349;48.692;8.186;2023-10-08T06:30:19;149265.97;;;12.57;92.43
59531;BME280;45349;48.692;8.186;2023-10-08T06:32:47;149284.69;;;12.65;92.34
59531;BME280;45349;48.692;8.186;2023-10-08T06:35:16;149292.19;;;12.68;92.83
59531;BME280;45349;48.692;8.186;2023-10-08T06:37:44;149300.88;;;12.72;92.56
59531;BME280;45349;48.692;8.186;2023-10-08T06:40:11;149310.88;;;12.76;92.89
59531;BME280;45349;48.692;8.186;2023-10-08T06:42:58;149328.34;;;12.83;93.41
59531;BME280;45349;48.692;8.186;2023-10-08T06:45:29;149342.03;;;12.89;93.31
59531;BME280;45349;48.692;8.186;2023-10-08T06:47:59;149396.91;;;13.11;90.02
59531;BME280;45349;48.692;8.186;2023-10-08T06:50:31;149411.88;;;13.18;90.51
59531;BME280;45349;48.692;8.186;2023-10-08T06:53:02;149444.34;;;13.31;88.50
59531;BME280;45349;48.692;8.186;2023-10-08T06:55:33;149466.78;;;13.40;88.17
59531;BME280;45349;48.692;8.186;2023-10-08T06:58:01;149481.81;;;13.47;90.38
59531;BME280;45349;48.692;8.186;2023-10-08T07:00:31;149489.31;;;13.50;90.89
59531;BME280;45349;48.692;8.186;2023-10-08T07:03:14;149479.31;;;13.46;91.59
59531;BME280;45349;48.692;8.186;2023-10-08T07:05:42;149464.28;;;13.39;93.76
59531;BME280;45349;48.692;8.186;2023-10-08T07:08:10;149460.53;;;13.38;94.85
59531;BME280;45349;48.692;8.186;2023-10-08T07:10:40;149475.56;;;13.44;92.87
59531;BME280;45349;48.692;8.186;2023-10-08T07:13:12;149480.53;;;13.46;92.71
59531;BME280;45349;48.692;8.186;2023-10-08T07:15:43;149485.53;;;13.48;93.05
59531;BME280;45349;48.692;8.186;2023-10-08T07:18:10;149488.03;;;13.49;92.80
59531;BME280;45349;48.692;8.186;2023-10-08T07:20:45;149495.53;;;13.52;93.54
59531;BME280;45349;48.692;8.186;2023-10-08T07:23:19;149495.53;;;13.52;94.72
59531;BME280;45349;48.692;8.186;2023-10-08T07:25:53;149506.78;;;13.57;95.11
59531;BME280;45349;48.692;8.186;2023-10-08T07:28:24;149494.28;;;13.52;95.86
59531;BME280;45349;48.692;8.186;2023-10-08T07:30:51;149485.53;;;13.48;96.84
59531;BME280;45349;48.692;8.186;2023-10-08T07:33:18;149499.28;;;13.54;96.82
59531;BME280;45349;48.692;8.186;2023-10-08T07:35:47;149509.28;;;13.58;96.75
59531;BME280;45349;48.692;8.186;2023-10-08T07:38:20;149515.50;;;13.61;96.55
59531;BME280;45349;48.692;8.186;2023-10-08T07:40:48;149519.25;;;13.62;97.88
59531;BME280;45349;48.692;8.186;2023-10-08T07:43:15;149526.75;;;13.65;96.82
59531;BME280;45349;48.692;8.186;2023-10-08T07:45:45;149535.47;;;13.69;96.65
59531;BME280;45349;48.692;8.186;2023-10-08T07:48:15;149526.75;;;13.65;97.22
59531;BME280;45349;48.692;8.186;2023-10-08T07:50:43;149530.47;;;13.67;97.69
59531;BME280;45349;48.692;8.186;2023-10-08T07:53:13;149524.25;;;13.64;97.12
59531;BME280;45349;48.692;8.186;2023-10-08T07:55:50;149530.47;;;13.67;92.90
59531;BME280;45349;48.692;8.186;2023-10-08T07:58:22;149530.47;;;13.67;89.86
59531;BME280;45349;48.692;8.186;2023-10-08T08:00:52;149539.22;;;13.70;84.68
59531;BME280;45349;48.692;8.186;2023-10-08T08:03:21;149519.25;;;13.62;81.19
59531;BME280;45349;48.692;8.186;2023-10-08T08:05:57;149500.50;;;13.54;81.95
59531;BME280;45349;48.692;8.186;2023-10-08T08:08:34;149485.53;;;13.48;86.19
59531;BME280;45349;48.692;8.186;2023-10-08T08:11:04;149466.78;;;13.40;86.69
59531;BME280;45349;48.692;8.186;2023-10-08T08:13:33;149481.81;;;13.47;88.67
59531;BME280;45349;48.692;8.186;2023-10-08T08:16:00;149516.75;;;13.61;86.63
59531;BME280;45349;48.692;8.186;2023-10-08T08:18:36;149584.09;;;13.89;81.35
59531;BME280;45349;48.692;8.186;2023-10-08T08:21:03;149635.31;;;14.10;82.22
59531;BME280;45349;48.692;8.186;2023-10-08T08:23:30;149697.69;;;14.36;81.59
59531;BME280;45349;48.692;8.186;2023-10-08T08:25:59;149732.66;;;14.51;78.54
59531;BME280;45349;48.692;8.186;2023-10-08T08:28:52;149758.91;;;14.61;76.10
59531;BME280;45349;48.692;8.186;2023-10-08T08:31:20;149791.41;;;14.75;76.70
59531;BME280;45349;48.692;8.186;2023-10-08T08:33:47;149856.31;;;15.02;75.85
59531;BME280;45349;48.692;8.186;2023-10-08T08:36:19;149901.28;;;15.20;74.66
59531;BME280;45349;48.692;8.186;2023-10-08T08:38:47;149931.28;;;15.33;75.34
59531;BME280;45349;48.692;8.186;2023-10-08T08:41:15;149966.25;;;15.47;76.52
59531;BME280;45349;48.692;8.186;2023-10-08T08:43:47;150013.72;;;15.67;74.29
59531;BME280;45349;48.692;8.186;2023-10-08T08:46:14;150038.72;;;15.77;72.94
59531;BME280;45349;48.692;8.186;2023-10-08T08:48:42;150063.78;;;15.88;72.98
59531;BME280;45349;48.692;8.186;2023-10-08T08:51:09;150086.22;;;15.97;71.37
59531;BME280;45349;48.692;8.186;2023-10-08T08:53:37;150127.50;;;16.14;74.08
59531;BME280;45349;48.692;8.186;2023-10-08T08:56:07;150136.22;;;16.18;73.02
59531;BME280;45349;48.692;8.186;2023-10-08T08:58:36;150162.50;;;16.29;74.28
59531;BME280;45349;48.692;8.186;2023-10-08T09:01:06;150143.72;;;16.21;71.37
59531;BME280;45349;48.692;8.186;2023-10-08T09:03:35;150196.22;;;16.43;71.00
59531;BME280;45349;48.692;8.186;2023-10-08T09:06:02;150201.22;;;16.45;70.86
59531;BME280;45349;48.692;8.186;2023-10-08T09:08:33;150212.44;;;16.49;71.45
59531;BME280;45349;48.692;8.186;2023-10-08T09:11:00;150237.44;;;16.60;70.27
59531;BME280;45349;48.692;8.186;2023-10-08T09:13:31;150261.22;;;16.70;70.34
59531;BME280;45349;48.692;8.186;2023-10-08T09:16:02;150273.75;;;16.75;69.61
59531;BME280;45349;48.692;8.186;2023-10-08T09:18:30;150286.25;;;16.80;71.07
59531;BME280;45349;48.692;8.186;2023-10-08T09:21:07;150291.25;;;16.82;73.54
59531;BME280;45349;48.692;8.186;2023-10-08T09:23:39;150309.97;;;16.90;74.24
59531;BME280;45349;48.692;8.186;2023-10-08T09:26:08;150322.47;;;16.95;75.00
59531;BME280;45349;48.692;8.186;2023-10-08T09:28:36;150351.25;;;17.07;75.52
59531;BME280;45349;48.692;8.186;2023-10-08T09:31:05;150372.56;;;17.16;76.97
59531;BME280;45349;48.692;8.186;2023-10-08T09:33:32;150412.56;;;17.32;76.78
59531;BME280;45349;48.692;8.186;2023-10-08T09:35:59;150445.09;;;17.46;75.24
59531;BME280;45349;48.692;8.186;2023-10-08T09:38:29;150463.84;;;17.53;72.46
59531;BME280;45349;48.692;8.186;2023-10-08T09:40:57;150498.88;;;17.68;71.81
59531;BME280;45349;48.692;8.186;2023-10-08T09:43:27;150536.41;;;17.83;71.59
59531;BME280;45349;48.692;8.186;2023-10-08T09:45:57;150579.00;;;18.01;70.04
59531;BME280;45349;48.692;8.186;2023-10-08T09:48:30;150625.28;;;18.20;68.58
59531;BME280;45349;48.692;8.186;2023-10-08T09:50:58;150671.56;;;18.39;66.81
59531;BME280;45349;48.692;8.186;2023-10-08T09:53:31;150711.59;;;18.56;68.67
59531;BME280;45349;48.692;8.186;2023-10-08T09:56:13;150782.94;;;18.85;66.13
59531;BME280;45349;48.692;8.186;2023-10-08T09:58:41;150829.34;;;19.05;63.07
59531;BME280;45349;48.692;8.186;2023-10-08T10:01:08;150879.38;;;19.25;61.00
59531;BME280;45349;48.692;8.186;2023-10-08T10:03:37;150920.72;;;19.42;57.58
59531;BME280;45349;48.692;8.186;2023-10-08T10:06:11;150965.75;;;19.61;54.26
59531;BME280;45349;48.692;8.186;2023-10-08T10:08:41;150960.81;;;19.59;53.70
59531;BME280;45349;48.692;8.186;2023-10-08T10:11:08;150974.56;;;19.65;53.46
59531;BME280;45349;48.692;8.186;2023-10-08T10:13:39;151017.13;;;19.82;54.00
59531;BME280;45349;48.692;8.186;2023-10-08T10:16:06;151039.75;;;19.91;52.45
59531;BME280;45349;48.692;8.186;2023-10-08T10:18:33;151057.28;;;19.99;52.09
59531;BME280;45349;48.692;8.186;2023-10-08T10:21:25;151093.59;;;20.14;51.29
59531;BME280;45349;48.692;8.186;2023-10-08T10:23:53;151112.34;;;20.21;51.88
59531;BME280;45349;48.692;8.186;2023-10-08T10:26:25;151104.84;;;20.18;52.69
59531;BME280;45349;48.692;8.186;2023-10-08T10:29:21;151106.09;;;20.19;51.86
59531;BME280;45349;48.692;8.186;2023-10-08T10:31:51;151084.84;;;20.10;52.24
59531;BME280;45349;48.692;8.186;2023-10-08T10:34:20;151102.31;;;20.17;52.23
59531;BME280;45349;48.692;8.186;2023-10-08T10:36:50;151119.88;;;20.25;52.29
59531;BME280;45349;48.692;8.186;2023-10-08T10:39:24;151146.19;;;20.35;52.56
59531;BME280;45349;48.692;8.186;2023-10-08T10:41:57;151188.81;;;20.53;53.55
59531;BME280;45349;48.692;8.186;2023-10-08T10:44:27;151202.56;;;20.59;53.27
59531;BME280;45349;48.692;8.186;2023-10-08T10:46:55;151197.56;;;20.57;51.25
59531;BME280;45349;48.692;8.186;2023-10-08T10:49:36;151215.09;;;20.64;51.76
59531;BME280;45349;48.692;8.186;2023-10-08T10:52:15;151211.38;;;20.62;51.56
59531;BME280;45349;48.692;8.186;2023-10-08T10:54:51;151237.66;;;20.73;50.18
59531;BME280;45349;48.692;8.186;2023-10-08T10:57:25;151287.84;;;20.94;50.27
59531;BME280;45349;48.692;8.186;2023-10-08T11:00:02;151320.44;;;21.07;48.23
59531;BME280;45349;48.692;8.186;2023-10-08T11:02:53;151327.94;;;21.11;48.34
59531;BME280;45349;48.692;8.186;2023-10-08T11:05:22;151376.81;;;21.31;47.14
59531;BME280;45349;48.692;8.186;2023-10-08T11:07:55;151405.63;;;21.43;47.46
59531;BME280;45349;48.692;8.186;2023-10-08T11:10:30;151415.66;;;21.47;47.92
59531;BME280;45349;48.692;8.186;2023-10-08T11:12:58;151439.50;;;21.57;46.61
59531;BME280;45349;48.692;8.186;2023-10-08T11:15:26;151450.75;;;21.61;46.23
59531;BME280;45349;48.692;8.186;2023-10-08T11:18:07;151453.31;;;21.62;44.85
59531;BME280;45349;48.692;8.186;2023-10-08T11:20:34;151438.22;;;21.56;45.96
59531;BME280;45349;48.692;8.186;2023-10-08T11:23:06;151470.88;;;21.70;46.04
59531;BME280;45349;48.692;8.186;2023-10-08T11:25:52;151469.66;;;21.69;45.26
59531;BME280;45349;48.692;8.186;2023-10-08T11:28:19;151480.91;;;21.74;45.22
59531;BME280;45349;48.692;8.186;2023-10-08T11:30:47;151484.66;;;21.75;46.56
59531;BME280;45349;48.692;8.186;2023-10-08T11:33:17;151503.47;;;21.83;46.39
59531;BME280;45349;48.692;8.186;2023-10-08T11:35:55;151556.16;;;22.05;46.14
59531;BME280;45349;48.692;8.186;2023-10-08T11:38:25;151603.81;;;22.24;44.53
59531;BME280;45349;48.692;8.186;2023-10-08T11:40:54;151596.28;;;22.21;43.60
59531;BME280;45349;48.692;8.186;2023-10-08T11:43:23;151625.13;;;22.33;43.02
59531;BME280;45349;48.692;8.186;2023-10-08T11:45:50;151653.97;;;22.45;42.79
59531;BME280;45349;48.692;8.186;2023-10-08T11:48:17;151710.47;;;22.68;40.24
59531;BME280;45349;48.692;8.186;2023-10-08T11:50:51;151710.47;;;22.68;37.55
59531;BME280;45349;48.692;8.186;2023-10-08T11:53:18;151778.16;;;22.96;38.45
59531;BME280;45349;48.692;8.186;2023-10-08T11:55:46;151837.16;;;23.21;40.89
59531;BME280;45349;48.692;8.186;2023-10-08T11:58:14;151869.78;;;23.34;39.10
59531;BME280;45349;48.692;8.186;2023-10-08T12:00:45;151874.81;;;23.36;39.23
59531;BME280;45349;48.692;8.186;2023-10-08T12:03:17;151923.78;;;23.56;36.48
59531;BME280;45349;48.692;8.186;2023-10-08T12:05:44;151925.03;;;23.57;37.13
59531;BME280;45349;48.692;8.186;2023-10-08T12:08:14;151928.81;;;23.58;37.91
59531;BME280;45349;48.692;8.186;2023-10-08T12:10:42;151887.38;;;23.41;39.01
59531;BME280;45349;48.692;8.186;2023-10-08T12:13:12;151921.28;;;23.55;38.66
59531;BME280;45349;48.692;8.186;2023-10-08T12:15:39;151891.16;;;23.43;39.37
59531;BME280;45349;48.692;8.186;2023-10-08T12:18:07;151886.13;;;23.41;38.53
59531;BME280;45349;48.692;8.186;2023-10-08T12:20:41;151874.81;;;23.36;38.56
59531;BME280;45349;48.692;8.186;2023-10-08T12:23:11;151892.38;;;23.43;37.96
59531;BME280;45349;48.692;8.186;2023-10-08T12:25:45;151896.19;;;23.45;39.24
59531;BME280;45349;48.692;8.186;2023-10-08T12:28:18;151882.34;;;23.39;39.32
59531;BME280;45349;48.692;8.186;2023-10-08T12:30:45;151862.31;;;23.31;38.69
59531;BME280;45349;48.692;8.186;2023-10-08T12:33:12;151820.81;;;23.14;39.22
59531;BME280;45349;48.692;8.186;2023-10-08T12:35:42;151822.09;;;23.14;40.44
59531;BME280;45349;48.692;8.186;2023-10-08T12:38:09;151827.13;;;23.17;39.70
59531;BME280;45349;48.692;8.186;2023-10-08T12:40:36;151839.69;;;23.22;39.87
59531;BME280;45349;48.692;8.186;2023-10-08T12:43:13;151834.66;;;23.20;39.83
59531;BME280;45349;48.692;8.186;2023-10-08T12:45:46;151837.16;;;23.21;39.56
59531;BME280;45349;48.692;8.186;2023-10-08T12:48:20;151829.63;;;23.18;41.14
59531;BME280;45349;48.692;8.186;2023-10-08T12:50:47;151858.53;;;23.29;39.47
59531;BME280;45349;48.692;8.186;2023-10-08T12:53:20;151872.31;;;23.35;38.88
59531;BME280;45349;48.692;8.186;2023-10-08T12:55:50;151842.22;;;23.23;39.95
59531;BME280;45349;48.692;8.186;2023-10-08T12:58:19;151882.34;;;23.39;38.59
59531;BME280;45349;48.692;8.186;2023-10-08T13:00:50;151869.78;;;23.34;39.25
59531;BME280;45349;48.692;8.186;2023-10-08T13:03:23;151866.06;;;23.33;40.60
59531;BME280;45349;48.692;8.186;2023-10-08T13:05:50;151912.47;;;23.52;39.34
59531;BME280;45349;48.692;8.186;2023-10-08T13:08:18;151938.84;;;23.63;38.38
59531;BME280;45349;48.692;8.186;2023-10-08T13:10:45;151932.56;;;23.60;39.30
59531;BME280;45349;48.692;8.186;2023-10-08T13:13:11;151891.16;;;23.43;40.53
59531;BME280;45349;48.692;8.186;2023-10-08T13:15:42;151906.22;;;23.49;40.54
59531;BME280;45349;48.692;8.186;2023-10-08T13:18:10;151956.44;;;23.70;38.69
59531;BME280;45349;48.692;8.186;2023-10-08T13:20:36;151951.41;;;23.68;40.73
59531;BME280;45349;48.692;8.186;2023-10-08T13:23:06;151991.56;;;23.84;40.19
59531;BME280;45349;48.692;8.186;2023-10-08T13:25:32;152044.31;;;24.06;40.67